sensor_id;sensor_type;location;lat;lon;timestamp;P1;durP1;ratioP1;P2;durP2;ratioP2
60859;SDS011;46694;54.382;9.708;2023-05-07T00:01:23;97.75;;;28.98;;
60859;SDS011;46694;54.382;9.708;2023-05-07T00:04:03;86.47;;;29.52;;
60859;SDS011;46694;54.382;9.708;2023-05-07T00:06:42;96.55;;;29.83;;
60859;SDS011;46694;54.382;9.708;2023-05-07T00:09:22;57.63;;;26.55;;
60859;SDS011;46694;54.382;9.708;2023-05-07T00:12:01;76.18;;;29.27;;
60859;SDS011;46694;54.382;9.708;2023-05-07T00:14:41;86.07;;;29.10;;
60859;SDS011;46694;54.382;9.708;2023-05-07T00:17:21;75.18;;;27.77;;
60859;SDS011;46694;54.382;9.708;2023-05-07T00:20:00;93.57;;;30.13;;
60859;SDS011;46694;54.382;9.708;2023-05-07T00:22:42;85.40;;;29.85;;
60859;SDS011;46694;54.382;9.708;2023-05-07T00:25:21;80.57;;;29.63;;
60859;SDS011;46694;54.382;9.708;2023-05-07T00:28:01;94.63;;;31.17;;
60859;SDS011;46694;54.382;9.708;2023-05-07T00:30:42;83.05;;;29.73;;
60859;SDS011;46694;54.382;9.708;2023-05-07T00:33:22;87.03;;;32.17;;
60859;SDS011;46694;54.382;9.708;2023-05-07T00:36:01;85.38;;;30.20;;
60859;SDS011;46694;54.382;9.708;2023-05-07T00:38:41;82.25;;;29.23;;
60859;SDS011;46694;54.382;9.708;2023-05-07T00:41:20;70.35;;;30.40;;
60859;SDS011;46694;54.382;9.708;2023-05-07T00:44:00;73.28;;;30.08;;
60859;SDS011;46694;54.382;9.708;2023-05-07T00:46:40;81.32;;;29.65;;
60859;SDS011;46694;54.382;9.708;2023-05-07T00:49:20;95.75;;;33.30;;
60859;SDS011;46694;54.382;9.708;2023-05-07T00:51:59;101.68;;;31.85;;
60859;SDS011;46694;54.382;9.708;2023-05-07T00:54:40;95.15;;;30.92;;
60859;SDS011;46694;54.382;9.708;2023-05-07T00:57:20;73.90;;;31.77;;
60859;SDS011;46694;54.382;9.708;2023-05-07T01:00:01;93.78;;;31.77;;
60859;SDS011;46694;54.382;9.708;2023-05-07T01:02:43;65.18;;;30.08;;
60859;SDS011;46694;54.382;9.708;2023-05-07T01:05:23;91.43;;;30.70;;
60859;SDS011;46694;54.382;9.708;2023-05-07T01:08:04;73.15;;;31.52;;
60859;SDS011;46694;54.382;9.708;2023-05-07T01:10:44;84.05;;;31.20;;
60859;SDS011;46694;54.382;9.708;2023-05-07T01:13:25;67.57;;;31.02;;
60859;SDS011;46694;54.382;9.708;2023-05-07T01:16:04;76.22;;;31.40;;
60859;SDS011;46694;54.382;9.708;2023-05-07T01:18:45;82.57;;;31.48;;
60859;SDS011;46694;54.382;9.708;2023-05-07T01:21:26;64.80;;;31.05;;
60859;SDS011;46694;54.382;9.708;2023-05-07T01:24:12;72.50;;;30.27;;
60859;SDS011;46694;54.382;9.708;2023-05-07T01:26:51;68.35;;;30.98;;
60859;SDS011;46694;54.382;9.708;2023-05-07T01:29:31;67.68;;;30.02;;
60859;SDS011;46694;54.382;9.708;2023-05-07T01:32:13;69.13;;;30.73;;
60859;SDS011;46694;54.382;9.708;2023-05-07T01:34:58;55.45;;;28.95;;
60859;SDS011;46694;54.382;9.708;2023-05-07T01:37:39;61.55;;;30.00;;
60859;SDS011;46694;54.382;9.708;2023-05-07T01:40:19;53.05;;;27.40;;
60859;SDS011;46694;54.382;9.708;2023-05-07T01:42:59;62.65;;;27.95;;
60859;SDS011;46694;54.382;9.708;2023-05-07T01:45:41;49.65;;;26.95;;
60859;SDS011;46694;54.382;9.708;2023-05-07T01:48:20;62.67;;;26.63;;
60859;SDS011;46694;54.382;9.708;2023-05-07T01:51:00;67.28;;;28.58;;
60859;SDS011;46694;54.382;9.708;2023-05-07T01:53:40;64.45;;;29.70;;
60859;SDS011;46694;54.382;9.708;2023-05-07T01:56:21;55.58;;;28.40;;
60859;SDS011;46694;54.382;9.708;2023-05-07T01:59:02;63.20;;;29.77;;
60859;SDS011;46694;54.382;9.708;2023-05-07T02:01:42;52.28;;;29.05;;
60859;SDS011;46694;54.382;9.708;2023-05-07T02:04:21;51.80;;;27.95;;
60859;SDS011;46694;54.382;9.708;2023-05-07T02:07:01;65.85;;;28.67;;
60859;SDS011;46694;54.382;9.708;2023-05-07T02:09:41;44.55;;;27.35;;
60859;SDS011;46694;54.382;9.708;2023-05-07T02:12:20;51.13;;;28.20;;
60859;SDS011;46694;54.382;9.708;2023-05-07T02:15:01;43.95;;;27.42;;
60859;SDS011;46694;54.382;9.708;2023-05-07T02:20:45;50.35;;;28.17;;
60859;SDS011;46694;54.382;9.708;2023-05-07T02:23:24;39.95;;;26.92;;
60859;SDS011;46694;54.382;9.708;2023-05-07T02:26:04;49.25;;;28.70;;
60859;SDS011;46694;54.382;9.708;2023-05-07T02:28:43;44.47;;;26.00;;
60859;SDS011;46694;54.382;9.708;2023-05-07T02:31:23;47.30;;;28.48;;
60859;SDS011;46694;54.382;9.708;2023-05-07T02:34:03;53.85;;;29.33;;
60859;SDS011;46694;54.382;9.708;2023-05-07T02:36:42;53.95;;;30.85;;
60859;SDS011;46694;54.382;9.708;2023-05-07T02:39:22;43.28;;;27.98;;
60859;SDS011;46694;54.382;9.708;2023-05-07T02:42:02;50.35;;;29.77;;
60859;SDS011;46694;54.382;9.708;2023-05-07T02:44:41;43.00;;;28.00;;
60859;SDS011;46694;54.382;9.708;2023-05-07T02:47:21;56.20;;;30.52;;
60859;SDS011;46694;54.382;9.708;2023-05-07T02:50:01;51.38;;;29.67;;
60859;SDS011;46694;54.382;9.708;2023-05-07T02:52:43;53.28;;;28.73;;
60859;SDS011;46694;54.382;9.708;2023-05-07T02:55:23;41.92;;;28.33;;
60859;SDS011;46694;54.382;9.708;2023-05-07T02:58:03;38.67;;;28.02;;
60859;SDS011;46694;54.382;9.708;2023-05-07T03:00:42;46.78;;;30.40;;
60859;SDS011;46694;54.382;9.708;2023-05-07T03:03:22;41.00;;;28.23;;
60859;SDS011;46694;54.382;9.708;2023-05-07T03:06:01;41.30;;;27.58;;
60859;SDS011;46694;54.382;9.708;2023-05-07T03:08:41;48.00;;;29.88;;
60859;SDS011;46694;54.382;9.708;2023-05-07T03:11:20;39.85;;;27.63;;
60859;SDS011;46694;54.382;9.708;2023-05-07T03:14:00;37.58;;;26.25;;
60859;SDS011;46694;54.382;9.708;2023-05-07T03:16:39;40.63;;;28.02;;
60859;SDS011;46694;54.382;9.708;2023-05-07T03:19:19;40.05;;;26.10;;
60859;SDS011;46694;54.382;9.708;2023-05-07T03:21:59;40.22;;;24.85;;
60859;SDS011;46694;54.382;9.708;2023-05-07T03:24:38;39.97;;;26.17;;
60859;SDS011;46694;54.382;9.708;2023-05-07T03:27:17;38.33;;;26.42;;
60859;SDS011;46694;54.382;9.708;2023-05-07T03:29:57;37.15;;;27.40;;
60859;SDS011;46694;54.382;9.708;2023-05-07T03:32:37;44.13;;;27.98;;
60859;SDS011;46694;54.382;9.708;2023-05-07T03:35:16;32.17;;;24.70;;
60859;SDS011;46694;54.382;9.708;2023-05-07T03:37:56;35.15;;;23.27;;
60859;SDS011;46694;54.382;9.708;2023-05-07T03:40:35;37.75;;;25.27;;
60859;SDS011;46694;54.382;9.708;2023-05-07T03:43:15;34.28;;;25.17;;
60859;SDS011;46694;54.382;9.708;2023-05-07T03:45:54;38.50;;;24.90;;
60859;SDS011;46694;54.382;9.708;2023-05-07T03:48:34;37.28;;;24.25;;
60859;SDS011;46694;54.382;9.708;2023-05-07T03:51:13;38.05;;;26.90;;
60859;SDS011;46694;54.382;9.708;2023-05-07T03:53:54;32.10;;;25.13;;
60859;SDS011;46694;54.382;9.708;2023-05-07T03:56:35;43.75;;;25.40;;
60859;SDS011;46694;54.382;9.708;2023-05-07T03:59:15;31.00;;;23.15;;
60859;SDS011;46694;54.382;9.708;2023-05-07T04:01:54;32.55;;;23.60;;
60859;SDS011;46694;54.382;9.708;2023-05-07T04:04:34;28.10;;;21.98;;
60859;SDS011;46694;54.382;9.708;2023-05-07T04:07:13;30.85;;;22.77;;
60859;SDS011;46694;54.382;9.708;2023-05-07T04:09:53;30.25;;;21.95;;
60859;SDS011;46694;54.382;9.708;2023-05-07T04:12:33;33.47;;;24.58;;
60859;SDS011;46694;54.382;9.708;2023-05-07T04:15:12;31.25;;;22.83;;
60859;SDS011;46694;54.382;9.708;2023-05-07T04:17:52;28.70;;;22.55;;
60859;SDS011;46694;54.382;9.708;2023-05-07T04:20:33;28.33;;;23.90;;
60859;SDS011;46694;54.382;9.708;2023-05-07T04:23:15;30.52;;;23.98;;
60859;SDS011;46694;54.382;9.708;2023-05-07T04:25:54;35.55;;;24.40;;
60859;SDS011;46694;54.382;9.708;2023-05-07T04:28:34;35.72;;;24.48;;
60859;SDS011;46694;54.382;9.708;2023-05-07T04:31:14;31.30;;;25.02;;
60859;SDS011;46694;54.382;9.708;2023-05-07T04:33:54;33.83;;;24.37;;
60859;SDS011;46694;54.382;9.708;2023-05-07T04:36:33;39.30;;;25.00;;
60859;SDS011;46694;54.382;9.708;2023-05-07T04:39:13;32.50;;;24.85;;
60859;SDS011;46694;54.382;9.708;2023-05-07T04:41:53;36.45;;;25.85;;
60859;SDS011;46694;54.382;9.708;2023-05-07T04:44:32;32.60;;;24.20;;
60859;SDS011;46694;54.382;9.708;2023-05-07T04:47:13;32.50;;;24.83;;
60859;SDS011;46694;54.382;9.708;2023-05-07T04:49:52;36.78;;;25.33;;
60859;SDS011;46694;54.382;9.708;2023-05-07T04:52:32;35.22;;;23.48;;
60859;SDS011;46694;54.382;9.708;2023-05-07T04:55:12;34.73;;;23.60;;
60859;SDS011;46694;54.382;9.708;2023-05-07T04:57:51;38.15;;;23.67;;
60859;SDS011;46694;54.382;9.708;2023-05-07T05:00:31;30.85;;;23.08;;
60859;SDS011;46694;54.382;9.708;2023-05-07T05:03:11;28.77;;;22.83;;
60859;SDS011;46694;54.382;9.708;2023-05-07T05:05:51;25.70;;;21.80;;
60859;SDS011;46694;54.382;9.708;2023-05-07T05:08:31;28.03;;;22.47;;
60859;SDS011;46694;54.382;9.708;2023-05-07T05:11:11;29.75;;;20.92;;
60859;SDS011;46694;54.382;9.708;2023-05-07T05:13:50;25.42;;;20.70;;
60859;SDS011;46694;54.382;9.708;2023-05-07T05:16:30;27.83;;;21.67;;
60859;SDS011;46694;54.382;9.708;2023-05-07T05:19:10;26.10;;;20.70;;
60859;SDS011;46694;54.382;9.708;2023-05-07T05:21:49;30.25;;;21.67;;
60859;SDS011;46694;54.382;9.708;2023-05-07T05:24:29;28.02;;;22.63;;
60859;SDS011;46694;54.382;9.708;2023-05-07T05:27:09;23.83;;;20.20;;
60859;SDS011;46694;54.382;9.708;2023-05-07T05:29:49;26.73;;;22.35;;
60859;SDS011;46694;54.382;9.708;2023-05-07T05:32:28;22.57;;;20.00;;
60859;SDS011;46694;54.382;9.708;2023-05-07T05:35:08;25.97;;;21.10;;
60859;SDS011;46694;54.382;9.708;2023-05-07T05:37:47;23.17;;;19.95;;
60859;SDS011;46694;54.382;9.708;2023-05-07T05:40:27;29.70;;;20.20;;
60859;SDS011;46694;54.382;9.708;2023-05-07T05:43:07;27.50;;;20.90;;
60859;SDS011;46694;54.382;9.708;2023-05-07T05:45:47;24.90;;;19.57;;
60859;SDS011;46694;54.382;9.708;2023-05-07T05:48:26;23.33;;;17.73;;
60859;SDS011;46694;54.382;9.708;2023-05-07T05:51:07;20.97;;;17.50;;
60859;SDS011;46694;54.382;9.708;2023-05-07T05:53:47;19.20;;;17.10;;
60859;SDS011;46694;54.382;9.708;2023-05-07T05:56:26;18.70;;;15.00;;
60859;SDS011;46694;54.382;9.708;2023-05-07T05:59:06;20.10;;;16.27;;
60859;SDS011;46694;54.382;9.708;2023-05-07T06:01:45;19.73;;;17.07;;
60859;SDS011;46694;54.382;9.708;2023-05-07T06:04:25;21.13;;;17.03;;
60859;SDS011;46694;54.382;9.708;2023-05-07T06:07:05;19.03;;;16.53;;
60859;SDS011;46694;54.382;9.708;2023-05-07T06:09:44;29.63;;;17.27;;
60859;SDS011;46694;54.382;9.708;2023-05-07T06:12:24;28.47;;;21.00;;
60859;SDS011;46694;54.382;9.708;2023-05-07T06:15:04;25.55;;;20.35;;
60859;SDS011;46694;54.382;9.708;2023-05-07T06:17:44;21.07;;;18.10;;
60859;SDS011;46694;54.382;9.708;2023-05-07T06:20:23;22.43;;;20.03;;
60859;SDS011;46694;54.382;9.708;2023-05-07T06:23:03;23.47;;;18.63;;
60859;SDS011;46694;54.382;9.708;2023-05-07T06:25:47;29.07;;;19.77;;
60859;SDS011;46694;54.382;9.708;2023-05-07T06:28:28;21.93;;;19.50;;
60859;SDS011;46694;54.382;9.708;2023-05-07T06:31:15;21.83;;;18.83;;
60859;SDS011;46694;54.382;9.708;2023-05-07T06:33:56;20.23;;;15.90;;
60859;SDS011;46694;54.382;9.708;2023-05-07T06:36:35;19.33;;;17.27;;
60859;SDS011;46694;54.382;9.708;2023-05-07T06:39:16;23.67;;;17.27;;
60859;SDS011;46694;54.382;9.708;2023-05-07T06:41:56;23.00;;;19.97;;
60859;SDS011;46694;54.382;9.708;2023-05-07T06:44:36;21.93;;;19.20;;
60859;SDS011;46694;54.382;9.708;2023-05-07T06:47:15;21.33;;;18.10;;
60859;SDS011;46694;54.382;9.708;2023-05-07T06:49:55;22.13;;;18.53;;
60859;SDS011;46694;54.382;9.708;2023-05-07T06:52:35;26.00;;;18.03;;
60859;SDS011;46694;54.382;9.708;2023-05-07T06:55:14;21.70;;;16.57;;
60859;SDS011;46694;54.382;9.708;2023-05-07T06:57:54;18.77;;;16.50;;
60859;SDS011;46694;54.382;9.708;2023-05-07T07:00:34;19.50;;;17.27;;
60859;SDS011;46694;54.382;9.708;2023-05-07T07:03:13;18.27;;;16.33;;
60859;SDS011;46694;54.382;9.708;2023-05-07T07:05:53;19.57;;;16.63;;
60859;SDS011;46694;54.382;9.708;2023-05-07T07:08:34;17.80;;;15.93;;
60859;SDS011;46694;54.382;9.708;2023-05-07T07:11:13;20.90;;;15.60;;
60859;SDS011;46694;54.382;9.708;2023-05-07T07:13:54;18.20;;;14.70;;
60859;SDS011;46694;54.382;9.708;2023-05-07T07:16:33;19.10;;;13.97;;
60859;SDS011;46694;54.382;9.708;2023-05-07T07:19:13;16.97;;;15.13;;
60859;SDS011;46694;54.382;9.708;2023-05-07T07:21:53;17.30;;;13.73;;
60859;SDS011;46694;54.382;9.708;2023-05-07T07:24:33;16.47;;;14.77;;
60859;SDS011;46694;54.382;9.708;2023-05-07T07:27:12;14.80;;;12.83;;
60859;SDS011;46694;54.382;9.708;2023-05-07T07:29:52;15.60;;;13.87;;
60859;SDS011;46694;54.382;9.708;2023-05-07T07:32:31;14.50;;;13.00;;
60859;SDS011;46694;54.382;9.708;2023-05-07T07:35:12;15.60;;;13.47;;
60859;SDS011;46694;54.382;9.708;2023-05-07T07:37:51;16.33;;;13.83;;
60859;SDS011;46694;54.382;9.708;2023-05-07T07:40:31;15.33;;;13.87;;
60859;SDS011;46694;54.382;9.708;2023-05-07T07:43:13;15.13;;;13.57;;
60859;SDS011;46694;54.382;9.708;2023-05-07T07:45:53;18.90;;;14.80;;
60859;SDS011;46694;54.382;9.708;2023-05-07T07:48:33;15.00;;;13.50;;
60859;SDS011;46694;54.382;9.708;2023-05-07T07:51:12;18.07;;;15.80;;
60859;SDS011;46694;54.382;9.708;2023-05-07T07:53:52;15.03;;;12.93;;
60859;SDS011;46694;54.382;9.708;2023-05-07T07:56:32;14.07;;;12.67;;
60859;SDS011;46694;54.382;9.708;2023-05-07T07:59:12;15.60;;;13.17;;
60859;SDS011;46694;54.382;9.708;2023-05-07T08:01:53;17.23;;;15.43;;
60859;SDS011;46694;54.382;9.708;2023-05-07T08:04:35;17.30;;;14.20;;
60859;SDS011;46694;54.382;9.708;2023-05-07T08:07:15;18.53;;;15.60;;
60859;SDS011;46694;54.382;9.708;2023-05-07T08:09:57;16.50;;;14.80;;
60859;SDS011;46694;54.382;9.708;2023-05-07T08:16:38;17.70;;;13.43;;
60859;SDS011;46694;54.382;9.708;2023-05-07T08:19:18;23.63;;;17.10;;
60859;SDS011;46694;54.382;9.708;2023-05-07T08:21:57;21.87;;;11.10;;
60859;SDS011;46694;54.382;9.708;2023-05-07T08:24:37;17.30;;;13.23;;
60859;SDS011;46694;54.382;9.708;2023-05-07T08:27:16;13.07;;;11.00;;
60859;SDS011;46694;54.382;9.708;2023-05-07T08:33:57;10.93;;;9.70;;
60859;SDS011;46694;54.382;9.708;2023-05-07T08:36:37;15.70;;;8.50;;
60859;SDS011;46694;54.382;9.708;2023-05-07T08:39:16;11.43;;;8.07;;
60859;SDS011;46694;54.382;9.708;2023-05-07T08:41:56;9.20;;;7.63;;
60859;SDS011;46694;54.382;9.708;2023-05-07T08:44:40;7.03;;;6.40;;
60859;SDS011;46694;54.382;9.708;2023-05-07T08:47:27;8.80;;;8.00;;
60859;SDS011;46694;54.382;9.708;2023-05-07T08:50:14;8.77;;;7.50;;
60859;SDS011;46694;54.382;9.708;2023-05-07T08:52:53;6.13;;;5.63;;
60859;SDS011;46694;54.382;9.708;2023-05-07T08:55:35;7.90;;;6.37;;
60859;SDS011;46694;54.382;9.708;2023-05-07T08:58:14;8.50;;;7.60;;
60859;SDS011;46694;54.382;9.708;2023-05-07T09:00:54;7.73;;;6.93;;
60859;SDS011;46694;54.382;9.708;2023-05-07T09:03:34;7.50;;;5.40;;
60859;SDS011;46694;54.382;9.708;2023-05-07T09:06:13;6.17;;;5.57;;
60859;SDS011;46694;54.382;9.708;2023-05-07T09:08:54;5.97;;;5.30;;
60859;SDS011;46694;54.382;9.708;2023-05-07T09:11:33;6.17;;;5.60;;
60859;SDS011;46694;54.382;9.708;2023-05-07T09:14:13;6.67;;;6.07;;
60859;SDS011;46694;54.382;9.708;2023-05-07T09:16:53;5.83;;;5.27;;
60859;SDS011;46694;54.382;9.708;2023-05-07T09:19:32;10.00;;;6.20;;
60859;SDS011;46694;54.382;9.708;2023-05-07T09:22:12;7.07;;;6.37;;
60859;SDS011;46694;54.382;9.708;2023-05-07T09:24:52;7.27;;;6.57;;
60859;SDS011;46694;54.382;9.708;2023-05-07T09:27:31;6.33;;;5.90;;
60859;SDS011;46694;54.382;9.708;2023-05-07T09:30:11;7.13;;;6.53;;
60859;SDS011;46694;54.382;9.708;2023-05-07T09:32:51;8.57;;;7.67;;
60859;SDS011;46694;54.382;9.708;2023-05-07T09:35:30;6.60;;;6.10;;
60859;SDS011;46694;54.382;9.708;2023-05-07T09:38:10;8.00;;;6.10;;
60859;SDS011;46694;54.382;9.708;2023-05-07T09:41:11;8.60;;;5.93;;
60859;SDS011;46694;54.382;9.708;2023-05-07T09:43:54;6.97;;;6.37;;
60859;SDS011;46694;54.382;9.708;2023-05-07T09:46:34;6.37;;;5.77;;
60859;SDS011;46694;54.382;9.708;2023-05-07T09:49:20;8.07;;;7.37;;
60859;SDS011;46694;54.382;9.708;2023-05-07T09:52:02;7.37;;;6.20;;
60859;SDS011;46694;54.382;9.708;2023-05-07T09:54:49;6.13;;;5.53;;
60859;SDS011;46694;54.382;9.708;2023-05-07T09:57:30;6.90;;;6.20;;
60859;SDS011;46694;54.382;9.708;2023-05-07T10:00:11;7.07;;;6.47;;
60859;SDS011;46694;54.382;9.708;2023-05-07T10:02:52;6.53;;;5.93;;
60859;SDS011;46694;54.382;9.708;2023-05-07T10:05:32;5.63;;;5.20;;
60859;SDS011;46694;54.382;9.708;2023-05-07T12:14:32;4.07;;;3.77;;
60859;SDS011;46694;54.382;9.708;2023-05-07T12:17:22;3.03;;;2.83;;
60859;SDS011;46694;54.382;9.708;2023-05-07T12:20:02;6.30;;;3.00;;
60859;SDS011;46694;54.382;9.708;2023-05-07T12:22:43;3.07;;;2.87;;
60859;SDS011;46694;54.382;9.708;2023-05-07T12:25:23;3.77;;;2.60;;
60859;SDS011;46694;54.382;9.708;2023-05-07T12:28:03;2.33;;;2.23;;
60859;SDS011;46694;54.382;9.708;2023-05-07T12:30:44;2.40;;;2.30;;
60859;SDS011;46694;54.382;9.708;2023-05-07T12:33:27;2.80;;;2.60;;
60859;SDS011;46694;54.382;9.708;2023-05-07T12:36:07;3.90;;;2.53;;
60859;SDS011;46694;54.382;9.708;2023-05-07T12:38:48;4.47;;;2.50;;
60859;SDS011;46694;54.382;9.708;2023-05-07T12:41:29;2.90;;;2.70;;
60859;SDS011;46694;54.382;9.708;2023-05-07T12:44:08;4.23;;;2.80;;
60859;SDS011;46694;54.382;9.708;2023-05-07T12:46:48;2.70;;;2.50;;
60859;SDS011;46694;54.382;9.708;2023-05-07T12:49:28;2.17;;;2.07;;
60859;SDS011;46694;54.382;9.708;2023-05-07T12:52:08;2.80;;;2.07;;
60859;SDS011;46694;54.382;9.708;2023-05-07T12:54:47;3.00;;;2.50;;
60859;SDS011;46694;54.382;9.708;2023-05-07T12:57:27;4.90;;;1.83;;
60859;SDS011;46694;54.382;9.708;2023-05-07T13:00:07;3.10;;;2.37;;
60859;SDS011;46694;54.382;9.708;2023-05-07T13:02:47;2.50;;;2.20;;
60859;SDS011;46694;54.382;9.708;2023-05-07T13:05:27;3.33;;;3.00;;
60859;SDS011;46694;54.382;9.708;2023-05-07T13:08:07;5.60;;;2.10;;
60859;SDS011;46694;54.382;9.708;2023-05-07T13:10:48;2.30;;;2.10;;
60859;SDS011;46694;54.382;9.708;2023-05-07T13:13:28;2.70;;;1.80;;
60859;SDS011;46694;54.382;9.708;2023-05-07T13:16:10;2.47;;;2.27;;
60859;SDS011;46694;54.382;9.708;2023-05-07T13:18:50;2.27;;;1.93;;
60859;SDS011;46694;54.382;9.708;2023-05-07T13:21:30;3.90;;;2.23;;
60859;SDS011;46694;54.382;9.708;2023-05-07T13:24:12;2.27;;;1.90;;
60859;SDS011;46694;54.382;9.708;2023-05-07T13:26:52;1.90;;;1.80;;
60859;SDS011;46694;54.382;9.708;2023-05-07T13:29:31;1.93;;;1.83;;
60859;SDS011;46694;54.382;9.708;2023-05-07T13:32:11;2.40;;;2.07;;
60859;SDS011;46694;54.382;9.708;2023-05-07T13:34:50;1.83;;;1.73;;
60859;SDS011;46694;54.382;9.708;2023-05-07T13:37:30;3.30;;;1.80;;
60859;SDS011;46694;54.382;9.708;2023-05-07T13:40:10;1.90;;;1.80;;
60859;SDS011;46694;54.382;9.708;2023-05-07T13:42:50;1.70;;;1.60;;
60859;SDS011;46694;54.382;9.708;2023-05-07T13:45:29;5.93;;;2.43;;
60859;SDS011;46694;54.382;9.708;2023-05-07T13:48:09;2.23;;;2.10;;
60859;SDS011;46694;54.382;9.708;2023-05-07T13:50:49;3.30;;;1.90;;
60859;SDS011;46694;54.382;9.708;2023-05-07T13:53:28;3.47;;;2.30;;
60859;SDS011;46694;54.382;9.708;2023-05-07T13:56:08;8.63;;;2.03;;
60859;SDS011;46694;54.382;9.708;2023-05-07T13:58:48;3.20;;;2.20;;
60859;SDS011;46694;54.382;9.708;2023-05-07T14:01:27;2.33;;;1.80;;
60859;SDS011;46694;54.382;9.708;2023-05-07T14:04:07;1.97;;;1.83;;
60859;SDS011;46694;54.382;9.708;2023-05-07T14:06:46;1.50;;;1.40;;
60859;SDS011;46694;54.382;9.708;2023-05-07T14:09:26;2.27;;;2.07;;
60859;SDS011;46694;54.382;9.708;2023-05-07T14:12:06;2.57;;;1.73;;
60859;SDS011;46694;54.382;9.708;2023-05-07T14:14:46;1.90;;;1.80;;
60859;SDS011;46694;54.382;9.708;2023-05-07T14:17:26;3.10;;;2.07;;
60859;SDS011;46694;54.382;9.708;2023-05-07T14:20:06;4.17;;;2.70;;
60859;SDS011;46694;54.382;9.708;2023-05-07T14:22:47;1.90;;;1.80;;
60859;SDS011;46694;54.382;9.708;2023-05-07T14:25:27;2.20;;;1.80;;
60859;SDS011;46694;54.382;9.708;2023-05-07T14:28:07;5.33;;;2.07;;
60859;SDS011;46694;54.382;9.708;2023-05-07T14:30:46;2.17;;;1.77;;
60859;SDS011;46694;54.382;9.708;2023-05-07T14:33:26;2.60;;;2.03;;
60859;SDS011;46694;54.382;9.708;2023-05-07T14:36:05;2.30;;;1.80;;
60859;SDS011;46694;54.382;9.708;2023-05-07T14:38:45;1.73;;;1.63;;
60859;SDS011;46694;54.382;9.708;2023-05-07T14:41:25;2.23;;;1.73;;
60859;SDS011;46694;54.382;9.708;2023-05-07T14:44:05;2.80;;;2.60;;
60859;SDS011;46694;54.382;9.708;2023-05-07T14:46:44;1.70;;;1.60;;
60859;SDS011;46694;54.382;9.708;2023-05-07T14:49:24;1.90;;;1.80;;
60859;SDS011;46694;54.382;9.708;2023-05-07T14:52:03;5.07;;;2.03;;
60859;SDS011;46694;54.382;9.708;2023-05-07T14:54:44;4.40;;;1.50;;
60859;SDS011;46694;54.382;9.708;2023-05-07T14:57:24;1.70;;;1.60;;
60859;SDS011;46694;54.382;9.708;2023-05-07T15:00:03;2.20;;;1.93;;
60859;SDS011;46694;54.382;9.708;2023-05-07T15:02:45;4.03;;;2.10;;
60859;SDS011;46694;54.382;9.708;2023-05-07T15:05:25;1.77;;;1.30;;
60859;SDS011;46694;54.382;9.708;2023-05-07T15:08:05;2.40;;;1.77;;
60859;SDS011;46694;54.382;9.708;2023-05-07T15:10:44;2.17;;;1.80;;
60859;SDS011;46694;54.382;9.708;2023-05-07T15:13:24;1.90;;;1.73;;
60859;SDS011;46694;54.382;9.708;2023-05-07T15:16:03;2.60;;;1.60;;
60859;SDS011;46694;54.382;9.708;2023-05-07T15:18:43;3.47;;;1.80;;
60859;SDS011;46694;54.382;9.708;2023-05-07T15:21:23;1.90;;;1.80;;
60859;SDS011;46694;54.382;9.708;2023-05-07T15:24:02;4.90;;;2.00;;
60859;SDS011;46694;54.382;9.708;2023-05-07T15:26:42;1.70;;;1.60;;
60859;SDS011;46694;54.382;9.708;2023-05-07T15:29:22;6.20;;;1.60;;
60859;SDS011;46694;54.382;9.708;2023-05-07T15:32:01;2.00;;;1.53;;
60859;SDS011;46694;54.382;9.708;2023-05-07T15:34:41;2.00;;;1.90;;
60859;SDS011;46694;54.382;9.708;2023-05-07T15:37:21;2.10;;;1.30;;
60859;SDS011;46694;54.382;9.708;2023-05-07T15:40:00;6.93;;;4.40;;
60859;SDS011;46694;54.382;9.708;2023-05-07T15:42:45;11.10;;;4.60;;
60859;SDS011;46694;54.382;9.708;2023-05-07T15:45:25;8.23;;;5.17;;
60859;SDS011;46694;54.382;9.708;2023-05-07T15:48:05;9.40;;;5.10;;
60859;SDS011;46694;54.382;9.708;2023-05-07T15:50:44;7.20;;;4.43;;
60859;SDS011;46694;54.382;9.708;2023-05-07T15:53:24;7.40;;;5.00;;
60859;SDS011;46694;54.382;9.708;2023-05-07T15:56:04;7.73;;;4.97;;
60859;SDS011;46694;54.382;9.708;2023-05-07T15:58:44;9.67;;;5.27;;
60859;SDS011;46694;54.382;9.708;2023-05-07T16:01:24;10.70;;;4.93;;
60859;SDS011;46694;54.382;9.708;2023-05-07T16:04:03;6.37;;;4.60;;
60859;SDS011;46694;54.382;9.708;2023-05-07T16:06:45;6.67;;;5.33;;
60859;SDS011;46694;54.382;9.708;2023-05-07T16:09:24;7.73;;;5.10;;
60859;SDS011;46694;54.382;9.708;2023-05-07T16:12:05;9.47;;;5.60;;
60859;SDS011;46694;54.382;9.708;2023-05-07T16:14:45;8.30;;;5.43;;
60859;SDS011;46694;54.382;9.708;2023-05-07T16:17:24;9.83;;;5.57;;
60859;SDS011;46694;54.382;9.708;2023-05-07T16:20:04;6.53;;;4.67;;
60859;SDS011;46694;54.382;9.708;2023-05-07T16:22:47;8.23;;;4.90;;
60859;SDS011;46694;54.382;9.708;2023-05-07T16:25:26;8.73;;;4.77;;
60859;SDS011;46694;54.382;9.708;2023-05-07T16:28:06;7.27;;;5.40;;
60859;SDS011;46694;54.382;9.708;2023-05-07T16:30:45;12.13;;;5.43;;
60859;SDS011;46694;54.382;9.708;2023-05-07T16:33:25;5.30;;;4.80;;
60859;SDS011;46694;54.382;9.708;2023-05-07T16:36:06;13.87;;;5.20;;
60859;SDS011;46694;54.382;9.708;2023-05-07T16:38:45;6.63;;;4.90;;
60859;SDS011;46694;54.382;9.708;2023-05-07T16:41:25;8.00;;;5.70;;
60859;SDS011;46694;54.382;9.708;2023-05-07T16:44:04;12.67;;;6.13;;
60859;SDS011;46694;54.382;9.708;2023-05-07T16:46:44;11.37;;;5.60;;
60859;SDS011;46694;54.382;9.708;2023-05-07T16:49:23;9.03;;;5.50;;
60859;SDS011;46694;54.382;9.708;2023-05-07T16:52:03;9.97;;;5.80;;
60859;SDS011;46694;54.382;9.708;2023-05-07T16:54:43;7.37;;;5.40;;
60859;SDS011;46694;54.382;9.708;2023-05-07T16:57:26;8.53;;;4.90;;
60859;SDS011;46694;54.382;9.708;2023-05-07T17:00:07;9.90;;;4.80;;
60859;SDS011;46694;54.382;9.708;2023-05-07T17:02:49;5.50;;;5.10;;
60859;SDS011;46694;54.382;9.708;2023-05-07T17:05:29;11.83;;;6.00;;
60859;SDS011;46694;54.382;9.708;2023-05-07T17:08:09;10.60;;;5.00;;
60859;SDS011;46694;54.382;9.708;2023-05-07T17:10:48;12.00;;;5.50;;
60859;SDS011;46694;54.382;9.708;2023-05-07T17:13:28;11.63;;;6.63;;
60859;SDS011;46694;54.382;9.708;2023-05-07T17:16:07;10.97;;;5.60;;
60859;SDS011;46694;54.382;9.708;2023-05-07T17:18:47;10.90;;;5.20;;
60859;SDS011;46694;54.382;9.708;2023-05-07T17:21:27;13.33;;;5.13;;
60859;SDS011;46694;54.382;9.708;2023-05-07T17:24:07;10.23;;;5.40;;
60859;SDS011;46694;54.382;9.708;2023-05-07T17:26:47;11.20;;;5.17;;
60859;SDS011;46694;54.382;9.708;2023-05-07T17:29:28;8.93;;;5.60;;
60859;SDS011;46694;54.382;9.708;2023-05-07T17:32:07;7.63;;;5.30;;
60859;SDS011;46694;54.382;9.708;2023-05-07T17:34:47;12.07;;;5.40;;
60859;SDS011;46694;54.382;9.708;2023-05-07T17:37:27;12.63;;;5.53;;
60859;SDS011;46694;54.382;9.708;2023-05-07T17:40:06;12.20;;;6.37;;
60859;SDS011;46694;54.382;9.708;2023-05-07T17:42:47;9.43;;;5.67;;
60859;SDS011;46694;54.382;9.708;2023-05-07T17:45:28;12.30;;;6.20;;
60859;SDS011;46694;54.382;9.708;2023-05-07T17:48:07;6.13;;;5.47;;
60859;SDS011;46694;54.382;9.708;2023-05-07T17:50:47;9.43;;;6.07;;
60859;SDS011;46694;54.382;9.708;2023-05-07T17:53:26;7.53;;;5.80;;
60859;SDS011;46694;54.382;9.708;2023-05-07T17:56:06;10.93;;;6.57;;
60859;SDS011;46694;54.382;9.708;2023-05-07T17:58:46;5.27;;;4.77;;
60859;SDS011;46694;54.382;9.708;2023-05-07T18:01:25;10.50;;;6.20;;
60859;SDS011;46694;54.382;9.708;2023-05-07T18:04:05;9.93;;;6.07;;
60859;SDS011;46694;54.382;9.708;2023-05-07T18:06:44;13.83;;;5.03;;